sensor_id;sensor_type;location;lat;lon;timestamp;P1;durP1;ratioP1;P2;durP2;ratioP2
37485;SDS011;23341;50.296;18.960;2023-03-13T00:01:57;10.35;;;6.20;;
37485;SDS011;23341;50.296;18.960;2023-03-13T00:07:02;7.55;;;5.40;;
37485;SDS011;23341;50.296;18.960;2023-03-13T00:12:08;7.57;;;5.40;;
37485;SDS011;23341;50.296;18.960;2023-03-13T00:17:13;7.13;;;5.47;;
37485;SDS011;23341;50.296;18.960;2023-03-13T00:22:18;10.13;;;5.13;;
37485;SDS011;23341;50.296;18.960;2023-03-13T00:27:23;6.00;;;5.40;;
37485;SDS011;23341;50.296;18.960;2023-03-13T00:32:28;6.15;;;5.38;;
37485;SDS011;23341;50.296;18.960;2023-03-13T00:37:32;8.30;;;5.78;;
37485;SDS011;23341;50.296;18.960;2023-03-13T00:42:38;7.22;;;5.20;;
37485;SDS011;23341;50.296;18.960;2023-03-13T00:47:42;6.28;;;5.35;;
37485;SDS011;23341;50.296;18.960;2023-03-13T00:52:46;7.57;;;4.78;;
37485;SDS011;23341;50.296;18.960;2023-03-13T00:57:52;8.05;;;6.07;;
37485;SDS011;23341;50.296;18.960;2023-03-13T01:02:56;8.00;;;5.93;;
37485;SDS011;23341;50.296;18.960;2023-03-13T01:08:01;6.00;;;5.40;;
37485;SDS011;23341;50.296;18.960;2023-03-13T01:13:07;7.82;;;5.35;;
37485;SDS011;23341;50.296;18.960;2023-03-13T01:18:12;6.07;;;5.32;;
37485;SDS011;23341;50.296;18.960;2023-03-13T01:23:16;6.07;;;4.95;;
37485;SDS011;23341;50.296;18.960;2023-03-13T01:28:23;4.93;;;4.43;;
37485;SDS011;23341;50.296;18.960;2023-03-13T01:33:29;7.25;;;5.82;;
37485;SDS011;23341;50.296;18.960;2023-03-13T01:38:33;5.75;;;5.20;;
37485;SDS011;23341;50.296;18.960;2023-03-13T01:43:39;6.90;;;5.07;;
37485;SDS011;23341;50.296;18.960;2023-03-13T01:48:45;5.18;;;4.68;;
37485;SDS011;23341;50.296;18.960;2023-03-13T01:53:56;9.13;;;4.55;;
37485;SDS011;23341;50.296;18.960;2023-03-13T01:59:08;6.15;;;4.97;;
37485;SDS011;23341;50.296;18.960;2023-03-13T02:04:17;8.73;;;5.10;;
37485;SDS011;23341;50.296;18.960;2023-03-13T02:09:25;5.18;;;4.40;;
37485;SDS011;23341;50.296;18.960;2023-03-13T02:19:41;5.75;;;5.00;;
37485;SDS011;23341;50.296;18.960;2023-03-13T02:24:49;6.03;;;5.43;;
37485;SDS011;23341;50.296;18.960;2023-03-13T02:30:01;6.07;;;5.47;;
37485;SDS011;23341;50.296;18.960;2023-03-13T02:35:07;9.30;;;6.10;;
37485;SDS011;23341;50.296;18.960;2023-03-13T02:40:14;7.15;;;5.50;;
37485;SDS011;23341;50.296;18.960;2023-03-13T02:45:25;6.75;;;5.35;;
37485;SDS011;23341;50.296;18.960;2023-03-13T02:50:30;6.60;;;5.43;;
37485;SDS011;23341;50.296;18.960;2023-03-13T02:55:38;10.15;;;6.30;;
37485;SDS011;23341;50.296;18.960;2023-03-13T03:00:47;6.88;;;6.20;;
37485;SDS011;23341;50.296;18.960;2023-03-13T03:05:51;6.90;;;6.20;;
37485;SDS011;23341;50.296;18.960;2023-03-13T03:10:56;8.82;;;6.13;;
37485;SDS011;23341;50.296;18.960;2023-03-13T03:16:05;9.80;;;7.03;;
37485;SDS011;23341;50.296;18.960;2023-03-13T03:21:11;12.52;;;6.93;;
37485;SDS011;23341;50.296;18.960;2023-03-13T03:26:16;7.05;;;6.05;;
37485;SDS011;23341;50.296;18.960;2023-03-13T03:31:22;6.90;;;6.15;;
37485;SDS011;23341;50.296;18.960;2023-03-13T03:36:29;7.83;;;6.70;;
37485;SDS011;23341;50.296;18.960;2023-03-13T03:41:35;8.70;;;4.93;;
37485;SDS011;23341;50.296;18.960;2023-03-13T03:46:42;7.22;;;6.22;;
37485;SDS011;23341;50.296;18.960;2023-03-13T03:51:47;7.93;;;6.88;;
37485;SDS011;23341;50.296;18.960;2023-03-13T03:56:56;6.63;;;5.63;;
37485;SDS011;23341;50.296;18.960;2023-03-13T04:02:02;10.13;;;8.10;;
37485;SDS011;23341;50.296;18.960;2023-03-13T04:07:07;8.15;;;6.75;;
37485;SDS011;23341;50.296;18.960;2023-03-13T04:12:13;12.27;;;8.68;;
37485;SDS011;23341;50.296;18.960;2023-03-13T04:17:21;11.15;;;6.97;;
37485;SDS011;23341;50.296;18.960;2023-03-13T04:22:26;14.20;;;7.85;;
37485;SDS011;23341;50.296;18.960;2023-03-13T04:27:32;10.93;;;7.80;;
37485;SDS011;23341;50.296;18.960;2023-03-13T04:32:39;11.13;;;7.25;;
37485;SDS011;23341;50.296;18.960;2023-03-13T04:38:17;14.73;;;8.27;;
37485;SDS011;23341;50.296;18.960;2023-03-13T04:43:44;10.60;;;8.32;;
37485;SDS011;23341;50.296;18.960;2023-03-13T04:49:09;12.27;;;7.47;;
37485;SDS011;23341;50.296;18.960;2023-03-13T04:54:29;11.25;;;7.63;;
37485;SDS011;23341;50.296;18.960;2023-03-13T04:59:52;14.77;;;7.70;;
37485;SDS011;23341;50.296;18.960;2023-03-13T05:05:22;9.88;;;6.95;;
37485;SDS011;23341;50.296;18.960;2023-03-13T05:10:54;17.83;;;7.60;;
37485;SDS011;23341;50.296;18.960;2023-03-13T05:16:17;13.32;;;8.07;;
37485;SDS011;23341;50.296;18.960;2023-03-13T05:21:39;10.02;;;8.35;;
37485;SDS011;23341;50.296;18.960;2023-03-13T05:26:58;10.98;;;7.88;;
37485;SDS011;23341;50.296;18.960;2023-03-13T05:32:28;13.00;;;9.13;;
37485;SDS011;23341;50.296;18.960;2023-03-13T05:37:34;15.05;;;8.35;;
37485;SDS011;23341;50.296;18.960;2023-03-13T05:42:50;11.27;;;8.82;;
37485;SDS011;23341;50.296;18.960;2023-03-13T05:48:17;10.77;;;6.60;;
37485;SDS011;23341;50.296;18.960;2023-03-13T05:53:59;8.98;;;6.43;;
37485;SDS011;23341;50.296;18.960;2023-03-13T05:59:32;8.48;;;6.53;;
37485;SDS011;23341;50.296;18.960;2023-03-13T06:04:54;8.90;;;5.80;;
37485;SDS011;23341;50.296;18.960;2023-03-13T06:10:01;9.50;;;6.40;;
37485;SDS011;23341;50.296;18.960;2023-03-13T06:15:06;14.23;;;6.75;;
37485;SDS011;23341;50.296;18.960;2023-03-13T06:20:29;7.78;;;5.90;;
37485;SDS011;23341;50.296;18.960;2023-03-13T06:25:35;11.07;;;8.25;;
37485;SDS011;23341;50.296;18.960;2023-03-13T06:30:40;19.80;;;8.45;;
37485;SDS011;23341;50.296;18.960;2023-03-13T06:35:44;15.15;;;8.20;;
37485;SDS011;23341;50.296;18.960;2023-03-13T06:40:59;20.17;;;9.43;;
37485;SDS011;23341;50.296;18.960;2023-03-13T06:46:04;12.05;;;7.22;;
37485;SDS011;23341;50.296;18.960;2023-03-13T06:51:10;15.13;;;7.55;;
37485;SDS011;23341;50.296;18.960;2023-03-13T06:56:16;9.02;;;6.43;;
37485;SDS011;23341;50.296;18.960;2023-03-13T07:01:21;16.13;;;7.75;;
37485;SDS011;23341;50.296;18.960;2023-03-13T07:06:25;11.07;;;5.10;;
37485;SDS011;23341;50.296;18.960;2023-03-13T07:11:31;13.93;;;7.55;;
37485;SDS011;23341;50.296;18.960;2023-03-13T07:16:35;17.60;;;7.65;;
37485;SDS011;23341;50.296;18.960;2023-03-13T07:21:39;10.73;;;7.45;;
37485;SDS011;23341;50.296;18.960;2023-03-13T07:26:45;10.93;;;6.55;;
37485;SDS011;23341;50.296;18.960;2023-03-13T07:32:07;10.73;;;5.82;;
37485;SDS011;23341;50.296;18.960;2023-03-13T07:37:11;13.45;;;7.03;;
37485;SDS011;23341;50.296;18.960;2023-03-13T07:42:18;12.70;;;5.45;;
37485;SDS011;23341;50.296;18.960;2023-03-13T07:47:22;13.45;;;7.18;;
37485;SDS011;23341;50.296;18.960;2023-03-13T07:52:26;15.10;;;7.25;;
37485;SDS011;23341;50.296;18.960;2023-03-13T07:57:32;8.52;;;6.20;;
37485;SDS011;23341;50.296;18.960;2023-03-13T08:02:36;11.25;;;5.45;;
37485;SDS011;23341;50.296;18.960;2023-03-13T08:07:42;9.82;;;5.90;;
37485;SDS011;23341;50.296;18.960;2023-03-13T08:12:48;20.60;;;8.90;;
37485;SDS011;23341;50.296;18.960;2023-03-13T08:17:53;15.45;;;8.27;;
37485;SDS011;23341;50.296;18.960;2023-03-13T08:22:58;9.30;;;5.75;;
37485;SDS011;23341;50.296;18.960;2023-03-13T08:28:03;12.75;;;5.45;;
37485;SDS011;23341;50.296;18.960;2023-03-13T08:33:08;15.55;;;6.50;;
37485;SDS011;23341;50.296;18.960;2023-03-13T08:38:13;14.18;;;5.35;;
37485;SDS011;23341;50.296;18.960;2023-03-13T08:43:18;9.85;;;5.28;;
37485;SDS011;23341;50.296;18.960;2023-03-13T08:48:23;18.42;;;6.60;;
37485;SDS011;23341;50.296;18.960;2023-03-13T08:53:27;14.82;;;6.10;;
37485;SDS011;23341;50.296;18.960;2023-03-13T08:58:33;9.60;;;4.35;;
37485;SDS011;23341;50.296;18.960;2023-03-13T09:03:38;12.00;;;4.95;;
37485;SDS011;23341;50.296;18.960;2023-03-13T09:08:43;27.90;;;7.85;;
37485;SDS011;23341;50.296;18.960;2023-03-13T09:13:49;24.60;;;8.55;;
37485;SDS011;23341;50.296;18.960;2023-03-13T09:18:54;25.17;;;7.43;;
37485;SDS011;23341;50.296;18.960;2023-03-13T09:23:59;14.25;;;5.13;;
37485;SDS011;23341;50.296;18.960;2023-03-13T09:29:06;4.40;;;3.08;;
37485;SDS011;23341;50.296;18.960;2023-03-13T09:34:10;16.60;;;4.57;;
37485;SDS011;23341;50.296;18.960;2023-03-13T09:39:14;15.50;;;4.45;;
37485;SDS011;23341;50.296;18.960;2023-03-13T09:44:21;9.10;;;3.70;;
37485;SDS011;23341;50.296;18.960;2023-03-13T09:49:30;12.57;;;3.67;;
37485;SDS011;23341;50.296;18.960;2023-03-13T09:54:38;8.73;;;4.88;;
37485;SDS011;23341;50.296;18.960;2023-03-13T09:59:48;6.85;;;2.88;;
37485;SDS011;23341;50.296;18.960;2023-03-13T10:04:58;17.08;;;4.43;;
37485;SDS011;23341;50.296;18.960;2023-03-13T10:10:12;8.65;;;4.50;;
37485;SDS011;23341;50.296;18.960;2023-03-13T10:15:29;10.98;;;3.08;;
37485;SDS011;23341;50.296;18.960;2023-03-13T10:20:40;11.52;;;2.97;;
37485;SDS011;23341;50.296;18.960;2023-03-13T10:25:48;8.90;;;4.40;;
37485;SDS011;23341;50.296;18.960;2023-03-13T10:30:57;9.10;;;3.55;;
37485;SDS011;23341;50.296;18.960;2023-03-13T10:36:10;3.35;;;1.85;;
37485;SDS011;23341;50.296;18.960;2023-03-13T10:41:19;11.70;;;3.53;;
37485;SDS011;23341;50.296;18.960;2023-03-13T10:46:32;8.15;;;2.45;;
37485;SDS011;23341;50.296;18.960;2023-03-13T10:51:39;7.13;;;2.97;;
37485;SDS011;23341;50.296;18.960;2023-03-13T10:56:49;10.40;;;2.97;;
37485;SDS011;23341;50.296;18.960;2023-03-13T11:01:59;6.22;;;2.75;;
37485;SDS011;23341;50.296;18.960;2023-03-13T11:07:05;12.10;;;4.15;;
37485;SDS011;23341;50.296;18.960;2023-03-13T11:12:17;10.50;;;4.43;;
37485;SDS011;23341;50.296;18.960;2023-03-13T11:17:27;16.17;;;4.32;;
37485;SDS011;23341;50.296;18.960;2023-03-13T11:22:46;8.15;;;3.42;;
37485;SDS011;23341;50.296;18.960;2023-03-13T11:33:37;8.80;;;3.42;;
37485;SDS011;23341;50.296;18.960;2023-03-13T11:38:52;7.82;;;3.80;;
37485;SDS011;23341;50.296;18.960;2023-03-13T11:44:05;11.38;;;4.75;;
37485;SDS011;23341;50.296;18.960;2023-03-13T11:49:27;17.33;;;5.80;;
37485;SDS011;23341;50.296;18.960;2023-03-13T12:00:02;7.93;;;3.83;;
37485;SDS011;23341;50.296;18.960;2023-03-13T12:05:20;5.43;;;2.80;;
37485;SDS011;23341;50.296;18.960;2023-03-13T12:10:26;11.90;;;5.10;;
37485;SDS011;23341;50.296;18.960;2023-03-13T12:15:36;5.57;;;2.72;;
37485;SDS011;23341;50.296;18.960;2023-03-13T12:20:48;9.57;;;6.10;;
37485;SDS011;23341;50.296;18.960;2023-03-13T12:25:59;11.43;;;6.63;;
37485;SDS011;23341;50.296;18.960;2023-03-13T12:31:10;15.53;;;7.53;;
37485;SDS011;23341;50.296;18.960;2023-03-13T12:36:25;13.88;;;8.82;;
37485;SDS011;23341;50.296;18.960;2023-03-13T12:41:34;9.07;;;4.75;;
37485;SDS011;23341;50.296;18.960;2023-03-13T12:46:45;17.73;;;7.50;;
37485;SDS011;23341;50.296;18.960;2023-03-13T12:51:56;16.20;;;8.23;;
37485;SDS011;23341;50.296;18.960;2023-03-13T12:57:22;13.23;;;7.53;;
37485;SDS011;23341;50.296;18.960;2023-03-13T13:03:00;24.35;;;11.13;;
37485;SDS011;23341;50.296;18.960;2023-03-13T13:08:22;8.93;;;6.63;;
37485;SDS011;23341;50.296;18.960;2023-03-13T13:13:28;9.95;;;4.43;;
37485;SDS011;23341;50.296;18.960;2023-03-13T13:18:33;11.45;;;4.07;;
37485;SDS011;23341;50.296;18.960;2023-03-13T13:23:39;9.50;;;5.03;;
37485;SDS011;23341;50.296;18.960;2023-03-13T13:28:48;9.43;;;5.40;;
37485;SDS011;23341;50.296;18.960;2023-03-13T13:33:52;7.43;;;4.93;;
37485;SDS011;23341;50.296;18.960;2023-03-13T13:38:59;5.38;;;3.58;;
37485;SDS011;23341;50.296;18.960;2023-03-13T13:44:19;11.07;;;4.88;;
37485;SDS011;23341;50.296;18.960;2023-03-13T13:49:36;16.88;;;6.85;;
37485;SDS011;23341;50.296;18.960;2023-03-13T13:54:57;5.28;;;3.55;;
37485;SDS011;23341;50.296;18.960;2023-03-13T14:00:03;11.02;;;6.95;;
37485;SDS011;23341;50.296;18.960;2023-03-13T14:05:22;12.00;;;6.78;;
37485;SDS011;23341;50.296;18.960;2023-03-13T14:10:32;15.40;;;7.25;;
37485;SDS011;23341;50.296;18.960;2023-03-13T14:15:41;26.67;;;16.50;;
37485;SDS011;23341;50.296;18.960;2023-03-13T14:20:57;14.73;;;8.43;;
37485;SDS011;23341;50.296;18.960;2023-03-13T14:26:11;12.38;;;6.10;;
37485;SDS011;23341;50.296;18.960;2023-03-13T14:31:20;8.45;;;5.43;;
37485;SDS011;23341;50.296;18.960;2023-03-13T14:36:29;15.13;;;6.47;;
37485;SDS011;23341;50.296;18.960;2023-03-13T14:41:49;12.20;;;8.07;;
37485;SDS011;23341;50.296;18.960;2023-03-13T14:46:54;14.30;;;9.18;;
37485;SDS011;23341;50.296;18.960;2023-03-13T14:52:01;12.00;;;6.90;;
37485;SDS011;23341;50.296;18.960;2023-03-13T14:57:17;11.00;;;6.07;;
37485;SDS011;23341;50.296;18.960;2023-03-13T15:02:28;7.37;;;5.23;;
37485;SDS011;23341;50.296;18.960;2023-03-13T15:07:35;12.43;;;8.18;;
37485;SDS011;23341;50.296;18.960;2023-03-13T15:12:43;8.93;;;6.95;;
37485;SDS011;23341;50.296;18.960;2023-03-13T15:17:48;19.60;;;11.93;;
37485;SDS011;23341;50.296;18.960;2023-03-13T15:22:52;19.42;;;11.48;;
37485;SDS011;23341;50.296;18.960;2023-03-13T15:27:58;21.63;;;8.27;;
37485;SDS011;23341;50.296;18.960;2023-03-13T15:33:02;11.32;;;6.40;;
37485;SDS011;23341;50.296;18.960;2023-03-13T15:38:09;10.27;;;5.75;;
37485;SDS011;23341;50.296;18.960;2023-03-13T15:43:17;9.05;;;5.47;;
37485;SDS011;23341;50.296;18.960;2023-03-13T15:48:24;13.77;;;6.10;;
37485;SDS011;23341;50.296;18.960;2023-03-13T15:53:30;10.55;;;7.25;;
37485;SDS011;23341;50.296;18.960;2023-03-13T15:58:38;12.23;;;7.25;;
37485;SDS011;23341;50.296;18.960;2023-03-13T16:03:42;11.88;;;6.80;;
37485;SDS011;23341;50.296;18.960;2023-03-13T16:08:47;10.40;;;6.90;;
37485;SDS011;23341;50.296;18.960;2023-03-13T16:13:53;14.18;;;7.65;;
37485;SDS011;23341;50.296;18.960;2023-03-13T16:18:58;8.88;;;5.15;;
37485;SDS011;23341;50.296;18.960;2023-03-13T16:24:05;18.25;;;9.38;;
37485;SDS011;23341;50.296;18.960;2023-03-13T16:29:12;10.32;;;5.97;;
37485;SDS011;23341;50.296;18.960;2023-03-13T16:34:17;9.68;;;5.85;;
37485;SDS011;23341;50.296;18.960;2023-03-13T16:39:22;17.08;;;10.43;;
37485;SDS011;23341;50.296;18.960;2023-03-13T16:44:27;19.40;;;9.75;;
37485;SDS011;23341;50.296;18.960;2023-03-13T16:49:31;11.77;;;7.80;;
37485;SDS011;23341;50.296;18.960;2023-03-13T16:54:36;14.55;;;7.28;;
37485;SDS011;23341;50.296;18.960;2023-03-13T16:59:42;10.75;;;6.43;;
37485;SDS011;23341;50.296;18.960;2023-03-13T17:04:46;16.35;;;10.27;;
37485;SDS011;23341;50.296;18.960;2023-03-13T17:09:51;22.30;;;9.90;;
37485;SDS011;23341;50.296;18.960;2023-03-13T17:14:57;17.08;;;9.25;;
37485;SDS011;23341;50.296;18.960;2023-03-13T17:20:02;14.63;;;7.95;;
37485;SDS011;23341;50.296;18.960;2023-03-13T17:25:08;20.38;;;10.35;;
37485;SDS011;23341;50.296;18.960;2023-03-13T17:30:21;12.20;;;7.57;;
37485;SDS011;23341;50.296;18.960;2023-03-13T17:35:28;12.65;;;7.82;;
37485;SDS011;23341;50.296;18.960;2023-03-13T17:40:33;10.43;;;6.68;;
37485;SDS011;23341;50.296;18.960;2023-03-13T17:45:42;16.52;;;9.93;;
37485;SDS011;23341;50.296;18.960;2023-03-13T17:50:46;15.02;;;8.85;;
37485;SDS011;23341;50.296;18.960;2023-03-13T17:55:51;13.27;;;7.38;;
37485;SDS011;23341;50.296;18.960;2023-03-13T18:00:57;18.85;;;9.43;;
37485;SDS011;23341;50.296;18.960;2023-03-13T18:06:01;18.52;;;10.55;;
37485;SDS011;23341;50.296;18.960;2023-03-13T18:11:07;16.88;;;9.85;;
37485;SDS011;23341;50.296;18.960;2023-03-13T18:16:20;19.42;;;12.88;;
37485;SDS011;23341;50.296;18.960;2023-03-13T18:21:31;16.38;;;8.82;;
37485;SDS011;23341;50.296;18.960;2023-03-13T18:26:36;24.38;;;11.95;;
37485;SDS011;23341;50.296;18.960;2023-03-13T18:31:42;22.63;;;11.48;;
37485;SDS011;23341;50.296;18.960;2023-03-13T18:36:47;31.75;;;15.77;;
37485;SDS011;23341;50.296;18.960;2023-03-13T18:41:52;20.08;;;10.63;;
37485;SDS011;23341;50.296;18.960;2023-03-13T18:46:58;20.45;;;9.85;;
37485;SDS011;23341;50.296;18.960;2023-03-13T18:52:02;21.88;;;10.05;;
37485;SDS011;23341;50.296;18.960;2023-03-13T18:57:16;16.85;;;9.02;;
37485;SDS011;23341;50.296;18.960;2023-03-13T19:02:23;14.88;;;9.43;;
37485;SDS011;23341;50.296;18.960;2023-03-13T19:07:28;15.30;;;8.77;;
37485;SDS011;23341;50.296;18.960;2023-03-13T19:12:32;26.95;;;13.55;;
37485;SDS011;23341;50.296;18.960;2023-03-13T19:17:38;23.05;;;11.02;;
37485;SDS011;23341;50.296;18.960;2023-03-13T19:22:43;17.17;;;8.02;;
37485;SDS011;23341;50.296;18.960;2023-03-13T19:27:48;8.27;;;6.53;;
37485;SDS011;23341;50.296;18.960;2023-03-13T19:32:54;8.07;;;5.22;;
37485;SDS011;23341;50.296;18.960;2023-03-13T19:37:58;9.68;;;5.78;;
37485;SDS011;23341;50.296;18.960;2023-03-13T19:43:03;15.35;;;9.13;;
37485;SDS011;23341;50.296;18.960;2023-03-13T19:48:09;12.93;;;6.85;;
37485;SDS011;23341;50.296;18.960;2023-03-13T19:53:13;9.60;;;5.78;;
37485;SDS011;23341;50.296;18.960;2023-03-13T19:58:17;6.85;;;4.15;;
37485;SDS011;23341;50.296;18.960;2023-03-13T20:03:23;6.38;;;3.85;;
37485;SDS011;23341;50.296;18.960;2023-03-13T20:08:27;8.38;;;3.92;;
37485;SDS011;23341;50.296;18.960;2023-03-13T20:13:31;8.02;;;4.65;;
37485;SDS011;23341;50.296;18.960;2023-03-13T20:18:38;7.93;;;5.40;;
37485;SDS011;23341;50.296;18.960;2023-03-13T20:23:46;7.72;;;4.25;;
37485;SDS011;23341;50.296;18.960;2023-03-13T20:28:52;8.02;;;4.68;;
37485;SDS011;23341;50.296;18.960;2023-03-13T20:34:00;6.70;;;4.03;;
37485;SDS011;23341;50.296;18.960;2023-03-13T20:39:04;14.60;;;5.68;;
37485;SDS011;23341;50.296;18.960;2023-03-13T20:44:09;5.80;;;3.75;;
37485;SDS011;23341;50.296;18.960;2023-03-13T20:49:15;6.68;;;4.13;;
37485;SDS011;23341;50.296;18.960;2023-03-13T20:54:19;7.70;;;3.40;;
37485;SDS011;23341;50.296;18.960;2023-03-13T20:59:24;6.75;;;3.28;;
37485;SDS011;23341;50.296;18.960;2023-03-13T21:04:30;7.65;;;3.65;;
37485;SDS011;23341;50.296;18.960;2023-03-13T21:09:35;6.65;;;3.88;;
37485;SDS011;23341;50.296;18.960;2023-03-13T21:14:39;9.38;;;3.40;;
37485;SDS011;23341;50.296;18.960;2023-03-13T21:19:45;5.65;;;4.00;;
37485;SDS011;23341;50.296;18.960;2023-03-13T21:24:49;7.05;;;5.32;;
37485;SDS011;23341;50.296;18.960;2023-03-13T21:29:54;9.93;;;4.30;;
37485;SDS011;23341;50.296;18.960;2023-03-13T21:34:59;20.48;;;7.28;;
37485;SDS011;23341;50.296;18.960;2023-03-13T21:40:05;20.92;;;7.20;;
37485;SDS011;23341;50.296;18.960;2023-03-13T21:45:11;13.23;;;7.18;;
37485;SDS011;23341;50.296;18.960;2023-03-13T21:50:17;10.95;;;5.43;;
37485;SDS011;23341;50.296;18.960;2023-03-13T21:55:26;8.77;;;4.30;;
37485;SDS011;23341;50.296;18.960;2023-03-13T22:00:30;27.33;;;8.48;;
37485;SDS011;23341;50.296;18.960;2023-03-13T22:05:40;9.55;;;5.25;;
37485;SDS011;23341;50.296;18.960;2023-03-13T22:10:46;16.97;;;4.37;;
37485;SDS011;23341;50.296;18.960;2023-03-13T22:15:51;5.93;;;4.22;;
37485;SDS011;23341;50.296;18.960;2023-03-13T22:20:58;7.93;;;4.22;;
37485;SDS011;23341;50.296;18.960;2023-03-13T22:26:03;7.82;;;3.33;;
37485;SDS011;23341;50.296;18.960;2023-03-13T22:31:08;8.10;;;3.83;;
37485;SDS011;23341;50.296;18.960;2023-03-13T22:36:15;8.57;;;4.00;;
37485;SDS011;23341;50.296;18.960;2023-03-13T22:41:19;5.97;;;3.90;;
37485;SDS011;23341;50.296;18.960;2023-03-13T22:46:23;5.97;;;3.88;;
37485;SDS011;23341;50.296;18.960;2023-03-13T22:51:29;9.02;;;3.58;;
37485;SDS011;23341;50.296;18.960;2023-03-13T22:56:33;7.72;;;3.40;;
37485;SDS011;23341;50.296;18.960;2023-03-13T23:01:38;5.07;;;2.88;;
37485;SDS011;23341;50.296;18.960;2023-03-13T23:06:44;6.47;;;3.28;;
37485;SDS011;23341;50.296;18.960;2023-03-13T23:11:48;4.63;;;3.15;;
37485;SDS011;23341;50.296;18.960;2023-03-13T23:16:53;6.88;;;3.22;;
37485;SDS011;23341;50.296;18.960;2023-03-13T23:21:58;5.85;;;3.50;;
37485;SDS011;23341;50.296;18.960;2023-03-13T23:27:03;11.50;;;3.10;;
37485;SDS011;23341;50.296;18.960;2023-03-13T23:32:07;6.68;;;3.17;;
37485;SDS011;23341;50.296;18.960;2023-03-13T23:37:13;8.18;;;3.42;;
37485;SDS011;23341;50.296;18.960;2023-03-13T23:42:17;5.85;;;3.80;;
37485;SDS011;23341;50.296;18.960;2023-03-13T23:47:22;5.00;;;4.45;;
37485;SDS011;23341;50.296;18.960;2023-03-13T23:52:27;6.32;;;2.53;;
37485;SDS011;23341;50.296;18.960;2023-03-13T23:57:32;5.05;;;3.63;;
